sensor_id;sensor_type;location;lat;lon;timestamp;P1;durP1;ratioP1;P2;durP2;ratioP2
1799;SDS011;919;48.274;12.292;2022-12-13T00:00:16;16.70;;;10.07;;
1799;SDS011;919;48.274;12.292;2022-12-13T00:02:43;17.57;;;9.73;;
1799;SDS011;919;48.274;12.292;2022-12-13T00:05:10;21.00;;;9.17;;
1799;SDS011;919;48.274;12.292;2022-12-13T00:07:38;16.47;;;10.27;;
1799;SDS011;919;48.274;12.292;2022-12-13T00:10:05;19.20;;;10.23;;
1799;SDS011;919;48.274;12.292;2022-12-13T00:12:32;18.43;;;10.27;;
1799;SDS011;919;48.274;12.292;2022-12-13T00:14:59;26.47;;;10.83;;
1799;SDS011;919;48.274;12.292;2022-12-13T00:17:27;29.77;;;10.50;;
1799;SDS011;919;48.274;12.292;2022-12-13T00:19:56;14.30;;;8.07;;
1799;SDS011;919;48.274;12.292;2022-12-13T00:22:23;22.83;;;9.07;;
1799;SDS011;919;48.274;12.292;2022-12-13T00:24:49;20.93;;;8.60;;
1799;SDS011;919;48.274;12.292;2022-12-13T00:27:18;21.20;;;10.50;;
1799;SDS011;919;48.274;12.292;2022-12-13T00:29:45;17.60;;;8.93;;
1799;SDS011;919;48.274;12.292;2022-12-13T00:32:11;19.53;;;10.03;;
1799;SDS011;919;48.274;12.292;2022-12-13T00:34:40;18.23;;;10.13;;
1799;SDS011;919;48.274;12.292;2022-12-13T00:37:06;22.70;;;10.93;;
1799;SDS011;919;48.274;12.292;2022-12-13T00:39:33;22.70;;;9.60;;
1799;SDS011;919;48.274;12.292;2022-12-13T00:42:00;21.47;;;7.27;;
1799;SDS011;919;48.274;12.292;2022-12-13T00:44:27;18.87;;;10.20;;
1799;SDS011;919;48.274;12.292;2022-12-13T00:46:53;16.57;;;9.27;;
1799;SDS011;919;48.274;12.292;2022-12-13T00:49:20;19.23;;;9.63;;
1799;SDS011;919;48.274;12.292;2022-12-13T00:51:49;20.73;;;8.93;;
1799;SDS011;919;48.274;12.292;2022-12-13T00:54:15;16.30;;;9.63;;
1799;SDS011;919;48.274;12.292;2022-12-13T00:56:42;10.83;;;7.47;;
1799;SDS011;919;48.274;12.292;2022-12-13T00:59:11;17.77;;;8.40;;
1799;SDS011;919;48.274;12.292;2022-12-13T01:01:40;15.17;;;7.73;;
1799;SDS011;919;48.274;12.292;2022-12-13T01:04:06;15.13;;;9.13;;
1799;SDS011;919;48.274;12.292;2022-12-13T01:06:35;19.17;;;9.03;;
1799;SDS011;919;48.274;12.292;2022-12-13T01:09:05;18.80;;;9.37;;
1799;SDS011;919;48.274;12.292;2022-12-13T01:11:34;30.73;;;9.77;;
1799;SDS011;919;48.274;12.292;2022-12-13T01:14:01;17.37;;;9.70;;
1799;SDS011;919;48.274;12.292;2022-12-13T01:16:28;12.07;;;8.23;;
1799;SDS011;919;48.274;12.292;2022-12-13T01:18:55;12.10;;;7.67;;
1799;SDS011;919;48.274;12.292;2022-12-13T01:21:22;12.67;;;7.07;;
1799;SDS011;919;48.274;12.292;2022-12-13T01:23:49;15.40;;;8.90;;
1799;SDS011;919;48.274;12.292;2022-12-13T01:26:18;12.00;;;8.23;;
1799;SDS011;919;48.274;12.292;2022-12-13T01:28:46;18.77;;;10.60;;
1799;SDS011;919;48.274;12.292;2022-12-13T01:31:14;21.27;;;10.63;;
1799;SDS011;919;48.274;12.292;2022-12-13T01:33:42;17.67;;;9.70;;
1799;SDS011;919;48.274;12.292;2022-12-13T01:36:09;25.30;;;8.47;;
1799;SDS011;919;48.274;12.292;2022-12-13T01:38:38;19.37;;;10.00;;
1799;SDS011;919;48.274;12.292;2022-12-13T01:41:05;11.33;;;7.63;;
1799;SDS011;919;48.274;12.292;2022-12-13T01:43:52;25.10;;;9.63;;
1799;SDS011;919;48.274;12.292;2022-12-13T01:46:21;20.47;;;9.70;;
1799;SDS011;919;48.274;12.292;2022-12-13T01:48:50;14.73;;;8.63;;
1799;SDS011;919;48.274;12.292;2022-12-13T01:51:23;15.50;;;8.30;;
1799;SDS011;919;48.274;12.292;2022-12-13T01:53:52;11.23;;;8.83;;
1799;SDS011;919;48.274;12.292;2022-12-13T01:56:25;14.33;;;8.00;;
1799;SDS011;919;48.274;12.292;2022-12-13T01:58:56;13.10;;;8.63;;
1799;SDS011;919;48.274;12.292;2022-12-13T02:01:25;15.50;;;9.07;;
1799;SDS011;919;48.274;12.292;2022-12-13T02:03:53;14.60;;;8.37;;
1799;SDS011;919;48.274;12.292;2022-12-13T02:06:22;16.53;;;8.50;;
1799;SDS011;919;48.274;12.292;2022-12-13T02:08:54;15.57;;;9.57;;
1799;SDS011;919;48.274;12.292;2022-12-13T02:11:22;21.53;;;9.47;;
1799;SDS011;919;48.274;12.292;2022-12-13T02:13:50;18.13;;;7.90;;
1799;SDS011;919;48.274;12.292;2022-12-13T02:16:20;23.00;;;9.37;;
1799;SDS011;919;48.274;12.292;2022-12-13T02:19:07;15.60;;;8.03;;
1799;SDS011;919;48.274;12.292;2022-12-13T02:21:57;13.90;;;8.73;;
1799;SDS011;919;48.274;12.292;2022-12-13T02:24:40;16.43;;;9.10;;
1799;SDS011;919;48.274;12.292;2022-12-13T02:27:29;26.87;;;8.30;;
1799;SDS011;919;48.274;12.292;2022-12-13T02:30:14;24.13;;;8.53;;
1799;SDS011;919;48.274;12.292;2022-12-13T02:33:02;19.13;;;8.57;;
1799;SDS011;919;48.274;12.292;2022-12-13T02:35:49;13.37;;;7.73;;
1799;SDS011;919;48.274;12.292;2022-12-13T02:38:23;16.77;;;9.20;;
1799;SDS011;919;48.274;12.292;2022-12-13T02:40:55;15.70;;;8.83;;
1799;SDS011;919;48.274;12.292;2022-12-13T02:43:30;11.80;;;8.37;;
1799;SDS011;919;48.274;12.292;2022-12-13T02:46:04;30.83;;;8.90;;
1799;SDS011;919;48.274;12.292;2022-12-13T02:48:34;16.50;;;9.60;;
1799;SDS011;919;48.274;12.292;2022-12-13T02:51:04;13.13;;;8.10;;
1799;SDS011;919;48.274;12.292;2022-12-13T02:53:34;13.83;;;8.00;;
1799;SDS011;919;48.274;12.292;2022-12-13T02:56:02;13.83;;;7.00;;
1799;SDS011;919;48.274;12.292;2022-12-13T02:58:35;17.30;;;10.27;;
1799;SDS011;919;48.274;12.292;2022-12-13T03:01:10;26.53;;;8.40;;
1799;SDS011;919;48.274;12.292;2022-12-13T03:03:45;17.43;;;8.97;;
1799;SDS011;919;48.274;12.292;2022-12-13T03:06:22;18.77;;;9.20;;
1799;SDS011;919;48.274;12.292;2022-12-13T03:09:02;13.77;;;7.80;;
1799;SDS011;919;48.274;12.292;2022-12-13T03:11:49;15.20;;;8.67;;
1799;SDS011;919;48.274;12.292;2022-12-13T03:14:43;19.47;;;9.80;;
1799;SDS011;919;48.274;12.292;2022-12-13T03:17:21;12.13;;;8.07;;
1799;SDS011;919;48.274;12.292;2022-12-13T03:19:50;13.33;;;9.17;;
1799;SDS011;919;48.274;12.292;2022-12-13T03:22:17;16.07;;;8.10;;
1799;SDS011;919;48.274;12.292;2022-12-13T03:24:44;17.60;;;8.67;;
1799;SDS011;919;48.274;12.292;2022-12-13T03:27:11;15.10;;;7.87;;
1799;SDS011;919;48.274;12.292;2022-12-13T03:29:38;16.20;;;7.77;;
1799;SDS011;919;48.274;12.292;2022-12-13T03:32:05;18.03;;;11.20;;
1799;SDS011;919;48.274;12.292;2022-12-13T03:34:33;16.87;;;8.70;;
1799;SDS011;919;48.274;12.292;2022-12-13T03:37:00;15.67;;;9.10;;
1799;SDS011;919;48.274;12.292;2022-12-13T03:39:27;17.13;;;9.70;;
1799;SDS011;919;48.274;12.292;2022-12-13T03:41:53;23.90;;;9.37;;
1799;SDS011;919;48.274;12.292;2022-12-13T03:44:20;25.97;;;11.50;;
1799;SDS011;919;48.274;12.292;2022-12-13T03:46:47;18.60;;;9.03;;
1799;SDS011;919;48.274;12.292;2022-12-13T03:49:14;15.30;;;8.43;;
1799;SDS011;919;48.274;12.292;2022-12-13T03:51:42;16.73;;;9.30;;
1799;SDS011;919;48.274;12.292;2022-12-13T03:54:09;16.87;;;9.17;;
1799;SDS011;919;48.274;12.292;2022-12-13T03:56:35;18.23;;;8.70;;
1799;SDS011;919;48.274;12.292;2022-12-13T03:59:02;16.33;;;8.40;;
1799;SDS011;919;48.274;12.292;2022-12-13T04:01:29;23.50;;;10.00;;
1799;SDS011;919;48.274;12.292;2022-12-13T04:03:55;29.40;;;10.13;;
1799;SDS011;919;48.274;12.292;2022-12-13T04:06:22;15.97;;;8.77;;
1799;SDS011;919;48.274;12.292;2022-12-13T04:08:51;15.60;;;10.00;;
1799;SDS011;919;48.274;12.292;2022-12-13T04:11:18;24.23;;;10.90;;
1799;SDS011;919;48.274;12.292;2022-12-13T04:14:02;21.90;;;7.97;;
1799;SDS011;919;48.274;12.292;2022-12-13T04:16:28;20.90;;;9.10;;
1799;SDS011;919;48.274;12.292;2022-12-13T04:18:55;18.23;;;9.00;;
1799;SDS011;919;48.274;12.292;2022-12-13T04:21:22;24.47;;;11.67;;
1799;SDS011;919;48.274;12.292;2022-12-13T04:23:50;26.00;;;10.07;;
1799;SDS011;919;48.274;12.292;2022-12-13T04:26:17;16.37;;;9.43;;
1799;SDS011;919;48.274;12.292;2022-12-13T04:28:43;16.43;;;9.40;;
1799;SDS011;919;48.274;12.292;2022-12-13T04:31:10;21.23;;;10.80;;
1799;SDS011;919;48.274;12.292;2022-12-13T04:33:37;20.37;;;10.17;;
1799;SDS011;919;48.274;12.292;2022-12-13T04:36:04;24.17;;;10.47;;
1799;SDS011;919;48.274;12.292;2022-12-13T04:38:31;18.90;;;10.13;;
1799;SDS011;919;48.274;12.292;2022-12-13T04:41:06;18.00;;;9.37;;
1799;SDS011;919;48.274;12.292;2022-12-13T04:43:37;23.60;;;10.53;;
1799;SDS011;919;48.274;12.292;2022-12-13T04:46:04;22.97;;;10.87;;
1799;SDS011;919;48.274;12.292;2022-12-13T04:48:31;17.50;;;9.27;;
1799;SDS011;919;48.274;12.292;2022-12-13T04:50:58;23.70;;;10.93;;
1799;SDS011;919;48.274;12.292;2022-12-13T04:53:25;27.63;;;10.43;;
1799;SDS011;919;48.274;12.292;2022-12-13T04:55:52;20.97;;;9.80;;
1799;SDS011;919;48.274;12.292;2022-12-13T04:58:20;23.33;;;12.50;;
1799;SDS011;919;48.274;12.292;2022-12-13T05:00:47;14.33;;;8.60;;
1799;SDS011;919;48.274;12.292;2022-12-13T05:03:14;15.47;;;8.30;;
1799;SDS011;919;48.274;12.292;2022-12-13T05:05:40;18.07;;;10.10;;
1799;SDS011;919;48.274;12.292;2022-12-13T05:08:07;16.87;;;9.20;;
1799;SDS011;919;48.274;12.292;2022-12-13T05:10:34;21.37;;;8.73;;
1799;SDS011;919;48.274;12.292;2022-12-13T05:13:01;16.67;;;8.80;;
1799;SDS011;919;48.274;12.292;2022-12-13T05:15:29;24.33;;;9.50;;
1799;SDS011;919;48.274;12.292;2022-12-13T05:17:58;14.93;;;9.07;;
1799;SDS011;919;48.274;12.292;2022-12-13T05:20:26;20.90;;;10.37;;
1799;SDS011;919;48.274;12.292;2022-12-13T05:22:54;19.70;;;9.03;;
1799;SDS011;919;48.274;12.292;2022-12-13T05:25:22;18.03;;;9.40;;
1799;SDS011;919;48.274;12.292;2022-12-13T05:27:48;27.17;;;9.20;;
1799;SDS011;919;48.274;12.292;2022-12-13T05:30:16;26.37;;;10.70;;
1799;SDS011;919;48.274;12.292;2022-12-13T05:32:44;18.90;;;9.50;;
1799;SDS011;919;48.274;12.292;2022-12-13T05:35:11;16.53;;;8.57;;
1799;SDS011;919;48.274;12.292;2022-12-13T05:37:38;21.30;;;8.27;;
1799;SDS011;919;48.274;12.292;2022-12-13T05:40:05;14.70;;;8.30;;
1799;SDS011;919;48.274;12.292;2022-12-13T05:42:35;18.40;;;8.17;;
1799;SDS011;919;48.274;12.292;2022-12-13T05:45:02;16.03;;;9.70;;
1799;SDS011;919;48.274;12.292;2022-12-13T05:47:30;13.53;;;8.20;;
1799;SDS011;919;48.274;12.292;2022-12-13T05:49:58;20.70;;;9.60;;
1799;SDS011;919;48.274;12.292;2022-12-13T05:52:24;16.47;;;8.67;;
1799;SDS011;919;48.274;12.292;2022-12-13T05:54:52;20.13;;;8.47;;
1799;SDS011;919;48.274;12.292;2022-12-13T05:57:20;15.17;;;9.03;;
1799;SDS011;919;48.274;12.292;2022-12-13T05:59:47;14.23;;;8.43;;
1799;SDS011;919;48.274;12.292;2022-12-13T06:02:14;18.20;;;8.73;;
1799;SDS011;919;48.274;12.292;2022-12-13T06:04:41;17.83;;;9.00;;
1799;SDS011;919;48.274;12.292;2022-12-13T06:07:09;14.20;;;8.43;;
1799;SDS011;919;48.274;12.292;2022-12-13T06:09:36;15.70;;;8.20;;
1799;SDS011;919;48.274;12.292;2022-12-13T06:12:03;16.47;;;7.27;;
1799;SDS011;919;48.274;12.292;2022-12-13T06:14:30;17.50;;;8.17;;
1799;SDS011;919;48.274;12.292;2022-12-13T06:16:57;15.80;;;7.00;;
1799;SDS011;919;48.274;12.292;2022-12-13T06:19:24;10.87;;;7.47;;
1799;SDS011;919;48.274;12.292;2022-12-13T06:21:51;18.40;;;8.33;;
1799;SDS011;919;48.274;12.292;2022-12-13T06:24:20;19.63;;;8.60;;
1799;SDS011;919;48.274;12.292;2022-12-13T06:26:48;19.93;;;7.80;;
1799;SDS011;919;48.274;12.292;2022-12-13T06:29:16;17.93;;;9.27;;
1799;SDS011;919;48.274;12.292;2022-12-13T06:31:43;31.67;;;8.83;;
1799;SDS011;919;48.274;12.292;2022-12-13T06:34:10;28.57;;;10.20;;
1799;SDS011;919;48.274;12.292;2022-12-13T06:36:37;15.77;;;7.73;;
1799;SDS011;919;48.274;12.292;2022-12-13T06:39:04;17.07;;;7.57;;
1799;SDS011;919;48.274;12.292;2022-12-13T06:41:33;12.83;;;7.10;;
1799;SDS011;919;48.274;12.292;2022-12-13T06:44:00;12.53;;;7.43;;
1799;SDS011;919;48.274;12.292;2022-12-13T06:46:27;13.10;;;6.87;;
1799;SDS011;919;48.274;12.292;2022-12-13T06:48:54;14.80;;;7.87;;
1799;SDS011;919;48.274;12.292;2022-12-13T06:51:20;21.77;;;7.93;;
1799;SDS011;919;48.274;12.292;2022-12-13T06:53:47;10.20;;;6.40;;
1799;SDS011;919;48.274;12.292;2022-12-13T06:56:14;12.63;;;7.80;;
1799;SDS011;919;48.274;12.292;2022-12-13T06:58:42;16.40;;;9.77;;
1799;SDS011;919;48.274;12.292;2022-12-13T07:01:10;15.50;;;8.50;;
1799;SDS011;919;48.274;12.292;2022-12-13T07:03:38;12.40;;;7.10;;
1799;SDS011;919;48.274;12.292;2022-12-13T07:06:07;11.00;;;7.93;;
1799;SDS011;919;48.274;12.292;2022-12-13T07:08:37;14.60;;;7.70;;
1799;SDS011;919;48.274;12.292;2022-12-13T07:11:04;18.93;;;8.20;;
1799;SDS011;919;48.274;12.292;2022-12-13T07:13:31;14.43;;;7.57;;
1799;SDS011;919;48.274;12.292;2022-12-13T07:16:00;19.13;;;9.43;;
1799;SDS011;919;48.274;12.292;2022-12-13T07:18:27;27.40;;;9.73;;
1799;SDS011;919;48.274;12.292;2022-12-13T07:20:54;14.00;;;8.43;;
1799;SDS011;919;48.274;12.292;2022-12-13T07:23:20;7.33;;;5.50;;
1799;SDS011;919;48.274;12.292;2022-12-13T07:25:49;17.70;;;8.30;;
1799;SDS011;919;48.274;12.292;2022-12-13T07:28:18;15.97;;;9.57;;
1799;SDS011;919;48.274;12.292;2022-12-13T07:30:46;13.93;;;7.67;;
1799;SDS011;919;48.274;12.292;2022-12-13T07:33:14;10.90;;;6.40;;
1799;SDS011;919;48.274;12.292;2022-12-13T07:35:42;10.27;;;7.43;;
1799;SDS011;919;48.274;12.292;2022-12-13T07:38:09;15.50;;;8.40;;
1799;SDS011;919;48.274;12.292;2022-12-13T07:40:37;13.40;;;7.37;;
1799;SDS011;919;48.274;12.292;2022-12-13T07:43:05;12.03;;;8.03;;
1799;SDS011;919;48.274;12.292;2022-12-13T07:45:32;15.47;;;8.87;;
1799;SDS011;919;48.274;12.292;2022-12-13T07:48:02;13.27;;;7.40;;
1799;SDS011;919;48.274;12.292;2022-12-13T07:50:31;11.80;;;6.60;;
1799;SDS011;919;48.274;12.292;2022-12-13T07:53:02;12.37;;;7.87;;
1799;SDS011;919;48.274;12.292;2022-12-13T07:55:30;16.97;;;8.30;;
1799;SDS011;919;48.274;12.292;2022-12-13T07:58:01;11.00;;;6.70;;
1799;SDS011;919;48.274;12.292;2022-12-13T08:00:29;10.13;;;7.80;;
1799;SDS011;919;48.274;12.292;2022-12-13T08:02:56;18.27;;;8.87;;
1799;SDS011;919;48.274;12.292;2022-12-13T08:05:23;16.87;;;7.60;;
1799;SDS011;919;48.274;12.292;2022-12-13T08:07:51;19.73;;;7.83;;
1799;SDS011;919;48.274;12.292;2022-12-13T08:10:18;19.23;;;7.20;;
1799;SDS011;919;48.274;12.292;2022-12-13T08:12:45;15.67;;;9.00;;
1799;SDS011;919;48.274;12.292;2022-12-13T08:15:14;12.67;;;8.20;;
1799;SDS011;919;48.274;12.292;2022-12-13T08:17:41;14.83;;;8.20;;
1799;SDS011;919;48.274;12.292;2022-12-13T08:20:08;15.03;;;8.50;;
1799;SDS011;919;48.274;12.292;2022-12-13T08:22:35;12.47;;;9.23;;
1799;SDS011;919;48.274;12.292;2022-12-13T08:25:04;15.10;;;7.70;;
1799;SDS011;919;48.274;12.292;2022-12-13T08:27:32;12.20;;;7.40;;
1799;SDS011;919;48.274;12.292;2022-12-13T08:29:59;13.30;;;6.97;;
1799;SDS011;919;48.274;12.292;2022-12-13T08:32:26;16.50;;;10.07;;
1799;SDS011;919;48.274;12.292;2022-12-13T08:34:53;15.73;;;7.70;;
1799;SDS011;919;48.274;12.292;2022-12-13T08:37:19;18.63;;;7.83;;
1799;SDS011;919;48.274;12.292;2022-12-13T08:39:46;14.37;;;8.00;;
1799;SDS011;919;48.274;12.292;2022-12-13T08:42:15;18.67;;;10.57;;
1799;SDS011;919;48.274;12.292;2022-12-13T08:44:43;21.70;;;9.10;;
1799;SDS011;919;48.274;12.292;2022-12-13T08:47:10;12.23;;;8.07;;
1799;SDS011;919;48.274;12.292;2022-12-13T08:49:37;19.20;;;10.27;;
1799;SDS011;919;48.274;12.292;2022-12-13T08:52:05;19.47;;;9.90;;
1799;SDS011;919;48.274;12.292;2022-12-13T08:54:34;23.37;;;11.13;;
1799;SDS011;919;48.274;12.292;2022-12-13T08:57:01;16.83;;;8.50;;
1799;SDS011;919;48.274;12.292;2022-12-13T08:59:29;21.23;;;10.07;;
1799;SDS011;919;48.274;12.292;2022-12-13T09:01:56;16.63;;;8.53;;
1799;SDS011;919;48.274;12.292;2022-12-13T09:04:23;13.40;;;8.13;;
1799;SDS011;919;48.274;12.292;2022-12-13T09:06:50;18.67;;;8.30;;
1799;SDS011;919;48.274;12.292;2022-12-13T09:09:17;19.90;;;8.73;;
1799;SDS011;919;48.274;12.292;2022-12-13T09:11:44;15.97;;;9.17;;
1799;SDS011;919;48.274;12.292;2022-12-13T09:14:10;23.43;;;9.80;;
1799;SDS011;919;48.274;12.292;2022-12-13T09:16:38;13.27;;;8.13;;
1799;SDS011;919;48.274;12.292;2022-12-13T09:19:05;17.60;;;8.57;;
1799;SDS011;919;48.274;12.292;2022-12-13T09:21:32;19.60;;;7.67;;
1799;SDS011;919;48.274;12.292;2022-12-13T09:23:59;19.23;;;9.30;;
1799;SDS011;919;48.274;12.292;2022-12-13T09:26:26;17.80;;;9.30;;
1799;SDS011;919;48.274;12.292;2022-12-13T09:28:53;16.07;;;9.70;;
1799;SDS011;919;48.274;12.292;2022-12-13T09:31:19;19.07;;;8.47;;
1799;SDS011;919;48.274;12.292;2022-12-13T09:33:48;17.70;;;9.50;;
1799;SDS011;919;48.274;12.292;2022-12-13T09:36:15;16.77;;;8.20;;
1799;SDS011;919;48.274;12.292;2022-12-13T09:38:43;19.37;;;9.20;;
1799;SDS011;919;48.274;12.292;2022-12-13T09:41:13;17.97;;;9.87;;
1799;SDS011;919;48.274;12.292;2022-12-13T09:43:45;16.10;;;9.40;;
1799;SDS011;919;48.274;12.292;2022-12-13T09:46:17;17.87;;;9.30;;
1799;SDS011;919;48.274;12.292;2022-12-13T09:48:52;10.60;;;7.40;;
1799;SDS011;919;48.274;12.292;2022-12-13T09:51:20;19.73;;;10.47;;
1799;SDS011;919;48.274;12.292;2022-12-13T09:53:49;14.00;;;7.00;;
1799;SDS011;919;48.274;12.292;2022-12-13T09:56:18;19.00;;;9.43;;
1799;SDS011;919;48.274;12.292;2022-12-13T09:58:47;14.53;;;8.40;;
1799;SDS011;919;48.274;12.292;2022-12-13T10:01:15;15.43;;;9.07;;
1799;SDS011;919;48.274;12.292;2022-12-13T10:03:43;16.70;;;9.87;;
1799;SDS011;919;48.274;12.292;2022-12-13T10:06:15;11.77;;;8.00;;
1799;SDS011;919;48.274;12.292;2022-12-13T10:08:44;16.60;;;8.17;;
1799;SDS011;919;48.274;12.292;2022-12-13T10:11:13;19.93;;;10.87;;
1799;SDS011;919;48.274;12.292;2022-12-13T10:13:41;15.57;;;8.50;;
1799;SDS011;919;48.274;12.292;2022-12-13T10:16:11;17.67;;;10.73;;
1799;SDS011;919;48.274;12.292;2022-12-13T10:18:43;14.27;;;8.50;;
1799;SDS011;919;48.274;12.292;2022-12-13T10:21:11;18.30;;;10.80;;
1799;SDS011;919;48.274;12.292;2022-12-13T10:23:43;17.53;;;9.80;;
1799;SDS011;919;48.274;12.292;2022-12-13T10:26:10;25.13;;;11.13;;
1799;SDS011;919;48.274;12.292;2022-12-13T10:28:38;23.07;;;10.17;;
1799;SDS011;919;48.274;12.292;2022-12-13T10:31:14;25.70;;;11.50;;
1799;SDS011;919;48.274;12.292;2022-12-13T10:33:47;26.80;;;10.17;;
1799;SDS011;919;48.274;12.292;2022-12-13T10:36:30;17.57;;;10.20;;
1799;SDS011;919;48.274;12.292;2022-12-13T10:38:59;24.33;;;10.53;;
1799;SDS011;919;48.274;12.292;2022-12-13T10:41:28;25.70;;;11.87;;
1799;SDS011;919;48.274;12.292;2022-12-13T10:44:06;14.77;;;9.00;;
1799;SDS011;919;48.274;12.292;2022-12-13T10:46:47;21.30;;;10.20;;
1799;SDS011;919;48.274;12.292;2022-12-13T10:49:16;18.80;;;9.83;;
1799;SDS011;919;48.274;12.292;2022-12-13T10:51:48;21.30;;;11.80;;
1799;SDS011;919;48.274;12.292;2022-12-13T10:54:16;25.53;;;12.60;;
1799;SDS011;919;48.274;12.292;2022-12-13T10:56:50;24.20;;;9.90;;
1799;SDS011;919;48.274;12.292;2022-12-13T10:59:24;20.10;;;9.47;;
1799;SDS011;919;48.274;12.292;2022-12-13T11:01:56;26.60;;;13.47;;
1799;SDS011;919;48.274;12.292;2022-12-13T11:04:24;29.90;;;13.40;;
1799;SDS011;919;48.274;12.292;2022-12-13T11:06:55;23.33;;;11.53;;
1799;SDS011;919;48.274;12.292;2022-12-13T11:09:27;23.00;;;12.23;;
1799;SDS011;919;48.274;12.292;2022-12-13T11:11:56;21.83;;;12.00;;
1799;SDS011;919;48.274;12.292;2022-12-13T11:14:26;16.47;;;10.13;;
1799;SDS011;919;48.274;12.292;2022-12-13T11:16:58;21.63;;;11.00;;
1799;SDS011;919;48.274;12.292;2022-12-13T11:19:32;18.90;;;10.87;;
1799;SDS011;919;48.274;12.292;2022-12-13T11:22:04;18.30;;;9.83;;
1799;SDS011;919;48.274;12.292;2022-12-13T11:24:33;18.97;;;10.77;;
1799;SDS011;919;48.274;12.292;2022-12-13T11:27:04;21.97;;;11.40;;
1799;SDS011;919;48.274;12.292;2022-12-13T11:29:54;27.57;;;12.90;;
1799;SDS011;919;48.274;12.292;2022-12-13T11:32:32;27.83;;;12.80;;
1799;SDS011;919;48.274;12.292;2022-12-13T11:35:12;25.83;;;12.43;;
1799;SDS011;919;48.274;12.292;2022-12-13T11:37:47;28.63;;;12.67;;
1799;SDS011;919;48.274;12.292;2022-12-13T11:40:20;24.80;;;13.80;;
1799;SDS011;919;48.274;12.292;2022-12-13T11:42:51;20.90;;;12.57;;
1799;SDS011;919;48.274;12.292;2022-12-13T11:45:23;25.00;;;13.07;;
1799;SDS011;919;48.274;12.292;2022-12-13T11:47:56;18.73;;;12.20;;
1799;SDS011;919;48.274;12.292;2022-12-13T11:50:29;22.60;;;12.20;;
1799;SDS011;919;48.274;12.292;2022-12-13T11:53:09;24.33;;;12.47;;
1799;SDS011;919;48.274;12.292;2022-12-13T11:55:46;23.97;;;12.50;;
1799;SDS011;919;48.274;12.292;2022-12-13T11:58:19;20.43;;;10.97;;
1799;SDS011;919;48.274;12.292;2022-12-13T12:00:51;20.87;;;12.27;;
1799;SDS011;919;48.274;12.292;2022-12-13T12:03:31;17.67;;;11.73;;
1799;SDS011;919;48.274;12.292;2022-12-13T12:06:03;19.50;;;11.07;;
1799;SDS011;919;48.274;12.292;2022-12-13T12:08:39;22.10;;;11.73;;
1799;SDS011;919;48.274;12.292;2022-12-13T12:11:13;17.40;;;11.73;;
1799;SDS011;919;48.274;12.292;2022-12-13T12:13:52;22.57;;;11.90;;
1799;SDS011;919;48.274;12.292;2022-12-13T12:16:27;20.57;;;12.47;;
1799;SDS011;919;48.274;12.292;2022-12-13T12:19:00;22.60;;;12.00;;
1799;SDS011;919;48.274;12.292;2022-12-13T12:21:33;18.07;;;10.67;;
1799;SDS011;919;48.274;12.292;2022-12-13T12:24:15;19.43;;;13.00;;
1799;SDS011;919;48.274;12.292;2022-12-13T12:26:56;22.27;;;11.30;;
1799;SDS011;919;48.274;12.292;2022-12-13T12:29:44;18.83;;;10.97;;
1799;SDS011;919;48.274;12.292;2022-12-13T12:32:32;22.70;;;11.37;;
1799;SDS011;919;48.274;12.292;2022-12-13T12:35:12;20.57;;;11.50;;
1799;SDS011;919;48.274;12.292;2022-12-13T12:38:05;22.67;;;12.80;;
1799;SDS011;919;48.274;12.292;2022-12-13T12:40:48;19.87;;;10.17;;
1799;SDS011;919;48.274;12.292;2022-12-13T12:43:28;23.57;;;11.60;;
1799;SDS011;919;48.274;12.292;2022-12-13T12:46:01;19.10;;;11.10;;
1799;SDS011;919;48.274;12.292;2022-12-13T12:49:03;19.50;;;10.90;;
1799;SDS011;919;48.274;12.292;2022-12-13T12:51:54;23.70;;;12.80;;
1799;SDS011;919;48.274;12.292;2022-12-13T12:54:30;19.90;;;11.17;;
1799;SDS011;919;48.274;12.292;2022-12-13T12:57:08;24.30;;;12.37;;
1799;SDS011;919;48.274;12.292;2022-12-13T12:59:46;21.40;;;12.73;;
1799;SDS011;919;48.274;12.292;2022-12-13T13:02:21;21.00;;;12.00;;
1799;SDS011;919;48.274;12.292;2022-12-13T13:04:53;31.17;;;13.70;;
1799;SDS011;919;48.274;12.292;2022-12-13T13:07:26;27.53;;;12.83;;
1799;SDS011;919;48.274;12.292;2022-12-13T13:09:56;20.23;;;10.60;;
1799;SDS011;919;48.274;12.292;2022-12-13T13:12:25;20.33;;;12.60;;
1799;SDS011;919;48.274;12.292;2022-12-13T13:14:53;22.43;;;10.77;;
1799;SDS011;919;48.274;12.292;2022-12-13T13:17:43;22.40;;;11.43;;
1799;SDS011;919;48.274;12.292;2022-12-13T13:20:15;22.50;;;13.40;;
1799;SDS011;919;48.274;12.292;2022-12-13T13:22:47;22.37;;;13.00;;
1799;SDS011;919;48.274;12.292;2022-12-13T13:25:21;23.97;;;11.90;;
1799;SDS011;919;48.274;12.292;2022-12-13T13:28:00;21.90;;;11.70;;
1799;SDS011;919;48.274;12.292;2022-12-13T13:30:30;29.03;;;11.60;;
1799;SDS011;919;48.274;12.292;2022-12-13T13:32:57;26.93;;;12.50;;
1799;SDS011;919;48.274;12.292;2022-12-13T13:44:52;21.70;;;12.60;;
1799;SDS011;919;48.274;12.292;2022-12-13T13:47:37;18.53;;;10.43;;
1799;SDS011;919;48.274;12.292;2022-12-13T13:53:06;23.37;;;12.10;;
1799;SDS011;919;48.274;12.292;2022-12-13T13:55:46;21.57;;;11.00;;
1799;SDS011;919;48.274;12.292;2022-12-13T14:01:40;20.30;;;12.73;;
1799;SDS011;919;48.274;12.292;2022-12-13T14:04:31;24.47;;;11.97;;
1799;SDS011;919;48.274;12.292;2022-12-13T14:07:48;24.30;;;12.20;;
1799;SDS011;919;48.274;12.292;2022-12-13T14:10:34;18.50;;;10.57;;
1799;SDS011;919;48.274;12.292;2022-12-13T14:16:47;19.43;;;10.70;;
1799;SDS011;919;48.274;12.292;2022-12-13T14:23:08;23.93;;;11.80;;
1799;SDS011;919;48.274;12.292;2022-12-13T14:25:48;12.60;;;9.23;;
1799;SDS011;919;48.274;12.292;2022-12-13T14:28:41;16.97;;;10.30;;
1799;SDS011;919;48.274;12.292;2022-12-13T14:31:14;20.40;;;12.30;;
1799;SDS011;919;48.274;12.292;2022-12-13T14:33:46;22.87;;;12.40;;
1799;SDS011;919;48.274;12.292;2022-12-13T14:36:14;17.13;;;10.30;;
1799;SDS011;919;48.274;12.292;2022-12-13T14:38:43;21.63;;;9.80;;
1799;SDS011;919;48.274;12.292;2022-12-13T14:41:14;21.57;;;10.70;;
1799;SDS011;919;48.274;12.292;2022-12-13T14:43:43;23.20;;;13.13;;
1799;SDS011;919;48.274;12.292;2022-12-13T14:46:11;19.70;;;10.90;;
1799;SDS011;919;48.274;12.292;2022-12-13T14:48:43;29.70;;;12.50;;
1799;SDS011;919;48.274;12.292;2022-12-13T14:54:07;24.53;;;10.90;;
1799;SDS011;919;48.274;12.292;2022-12-13T14:56:53;21.90;;;11.77;;
1799;SDS011;919;48.274;12.292;2022-12-13T14:59:21;17.87;;;10.00;;
1799;SDS011;919;48.274;12.292;2022-12-13T15:01:53;19.13;;;9.57;;
1799;SDS011;919;48.274;12.292;2022-12-13T15:04:22;22.67;;;12.93;;
1799;SDS011;919;48.274;12.292;2022-12-13T15:07:00;17.73;;;9.30;;
1799;SDS011;919;48.274;12.292;2022-12-13T15:09:33;18.90;;;10.03;;
1799;SDS011;919;48.274;12.292;2022-12-13T15:12:06;22.97;;;10.83;;
1799;SDS011;919;48.274;12.292;2022-12-13T15:14:35;16.50;;;10.13;;
1799;SDS011;919;48.274;12.292;2022-12-13T15:17:03;20.93;;;10.07;;
1799;SDS011;919;48.274;12.292;2022-12-13T15:19:30;24.97;;;11.10;;
1799;SDS011;919;48.274;12.292;2022-12-13T15:21:58;19.60;;;9.10;;
1799;SDS011;919;48.274;12.292;2022-12-13T15:24:28;22.10;;;9.07;;
1799;SDS011;919;48.274;12.292;2022-12-13T15:26:57;15.17;;;8.93;;
1799;SDS011;919;48.274;12.292;2022-12-13T15:29:26;21.80;;;9.67;;
1799;SDS011;919;48.274;12.292;2022-12-13T15:31:55;16.37;;;9.83;;
1799;SDS011;919;48.274;12.292;2022-12-13T15:34:32;18.97;;;9.90;;
1799;SDS011;919;48.274;12.292;2022-12-13T15:37:02;18.97;;;8.90;;
1799;SDS011;919;48.274;12.292;2022-12-13T15:39:34;12.27;;;8.20;;
1799;SDS011;919;48.274;12.292;2022-12-13T15:42:03;18.70;;;10.20;;